sensor_id;sensor_type;location;lat;lon;timestamp;temperature;humidity
51902;DHT22;37929;53.218;6.548;2023-04-06T00:01:37;4.80;99.90
51902;DHT22;37929;53.218;6.548;2023-04-06T00:04:03;4.80;99.90
51902;DHT22;37929;53.218;6.548;2023-04-06T00:06:29;5.60;99.90
51902;DHT22;37929;53.218;6.548;2023-04-06T00:08:56;4.80;99.90
51902;DHT22;37929;53.218;6.548;2023-04-06T00:11:22;5.00;99.90
51902;DHT22;37929;53.218;6.548;2023-04-06T00:13:48;4.70;99.90
51902;DHT22;37929;53.218;6.548;2023-04-06T00:16:13;4.80;99.90
51902;DHT22;37929;53.218;6.548;2023-04-06T00:18:40;4.70;99.90
51902;DHT22;37929;53.218;6.548;2023-04-06T00:21:06;4.70;99.90
51902;DHT22;37929;53.218;6.548;2023-04-06T00:23:32;4.60;99.90
51902;DHT22;37929;53.218;6.548;2023-04-06T00:25:58;4.60;99.90
51902;DHT22;37929;53.218;6.548;2023-04-06T00:28:24;4.80;99.90
51902;DHT22;37929;53.218;6.548;2023-04-06T00:30:54;4.60;99.90
51902;DHT22;37929;53.218;6.548;2023-04-06T00:33:21;4.60;99.90
51902;DHT22;37929;53.218;6.548;2023-04-06T00:35:47;4.60;99.90
51902;DHT22;37929;53.218;6.548;2023-04-06T00:38:14;4.60;99.90
51902;DHT22;37929;53.218;6.548;2023-04-06T00:40:41;5.10;99.90
51902;DHT22;37929;53.218;6.548;2023-04-06T00:43:07;4.60;99.90
51902;DHT22;37929;53.218;6.548;2023-04-06T00:45:34;4.50;99.90
51902;DHT22;37929;53.218;6.548;2023-04-06T00:48:00;4.50;99.90
51902;DHT22;37929;53.218;6.548;2023-04-06T00:50:27;4.80;99.90
51902;DHT22;37929;53.218;6.548;2023-04-06T00:52:54;4.70;99.90
51902;DHT22;37929;53.218;6.548;2023-04-06T00:55:20;4.40;99.90
51902;DHT22;37929;53.218;6.548;2023-04-06T00:57:46;4.40;99.90
51902;DHT22;37929;53.218;6.548;2023-04-06T01:00:13;4.40;99.90
51902;DHT22;37929;53.218;6.548;2023-04-06T01:02:39;4.40;99.90
51902;DHT22;37929;53.218;6.548;2023-04-06T01:05:05;4.40;99.90
51902;DHT22;37929;53.218;6.548;2023-04-06T01:07:31;4.30;99.90
51902;DHT22;37929;53.218;6.548;2023-04-06T01:09:57;4.30;99.90
51902;DHT22;37929;53.218;6.548;2023-04-06T01:12:24;4.40;99.90
51902;DHT22;37929;53.218;6.548;2023-04-06T01:14:50;4.30;99.90
51902;DHT22;37929;53.218;6.548;2023-04-06T01:17:16;4.40;99.90
51902;DHT22;37929;53.218;6.548;2023-04-06T01:19:42;4.40;99.90
51902;DHT22;37929;53.218;6.548;2023-04-06T01:22:07;4.30;99.90
51902;DHT22;37929;53.218;6.548;2023-04-06T01:24:33;4.90;99.90
51902;DHT22;37929;53.218;6.548;2023-04-06T01:26:59;4.30;99.90
51902;DHT22;37929;53.218;6.548;2023-04-06T01:29:26;4.30;99.90
51902;DHT22;37929;53.218;6.548;2023-04-06T01:31:52;4.30;99.90
51902;DHT22;37929;53.218;6.548;2023-04-06T01:34:18;4.30;99.90
51902;DHT22;37929;53.218;6.548;2023-04-06T01:36:43;4.30;99.90
51902;DHT22;37929;53.218;6.548;2023-04-06T01:39:09;4.50;99.90
51902;DHT22;37929;53.218;6.548;2023-04-06T01:41:36;4.50;99.90
51902;DHT22;37929;53.218;6.548;2023-04-06T01:44:02;5.00;99.90
51902;DHT22;37929;53.218;6.548;2023-04-06T01:46:28;4.20;99.90
51902;DHT22;37929;53.218;6.548;2023-04-06T01:48:54;4.20;99.90
51902;DHT22;37929;53.218;6.548;2023-04-06T01:51:20;4.20;99.90
51902;DHT22;37929;53.218;6.548;2023-04-06T01:53:49;4.20;99.90
51902;DHT22;37929;53.218;6.548;2023-04-06T01:56:15;4.20;99.90
51902;DHT22;37929;53.218;6.548;2023-04-06T01:58:40;4.10;99.90
51902;DHT22;37929;53.218;6.548;2023-04-06T02:01:06;4.20;99.90
51902;DHT22;37929;53.218;6.548;2023-04-06T02:03:32;4.10;99.90
51902;DHT22;37929;53.218;6.548;2023-04-06T02:05:57;4.10;99.90
51902;DHT22;37929;53.218;6.548;2023-04-06T02:08:23;4.20;99.90
51902;DHT22;37929;53.218;6.548;2023-04-06T02:10:49;4.80;99.90
51902;DHT22;37929;53.218;6.548;2023-04-06T02:13:15;4.00;99.90
51902;DHT22;37929;53.218;6.548;2023-04-06T02:15:41;4.30;99.90
51902;DHT22;37929;53.218;6.548;2023-04-06T02:18:06;4.00;99.90
51902;DHT22;37929;53.218;6.548;2023-04-06T02:20:32;4.00;99.90
51902;DHT22;37929;53.218;6.548;2023-04-06T02:22:59;4.00;99.90
51902;DHT22;37929;53.218;6.548;2023-04-06T02:25:27;4.00;99.90
51902;DHT22;37929;53.218;6.548;2023-04-06T02:27:53;4.00;99.90
51902;DHT22;37929;53.218;6.548;2023-04-06T02:30:19;3.90;99.90
51902;DHT22;37929;53.218;6.548;2023-04-06T02:32:45;3.90;99.90
51902;DHT22;37929;53.218;6.548;2023-04-06T02:35:11;3.90;99.90
51902;DHT22;37929;53.218;6.548;2023-04-06T02:37:37;3.90;99.90
51902;DHT22;37929;53.218;6.548;2023-04-06T02:40:03;3.90;99.90
51902;DHT22;37929;53.218;6.548;2023-04-06T02:42:29;3.80;99.90
51902;DHT22;37929;53.218;6.548;2023-04-06T02:44:58;4.00;99.90
51902;DHT22;37929;53.218;6.548;2023-04-06T02:47:23;4.40;99.90
51902;DHT22;37929;53.218;6.548;2023-04-06T02:49:49;4.60;99.90
51902;DHT22;37929;53.218;6.548;2023-04-06T02:52:15;3.80;99.90
51902;DHT22;37929;53.218;6.548;2023-04-06T02:54:43;3.70;99.90
51902;DHT22;37929;53.218;6.548;2023-04-06T02:57:09;3.70;99.90
51902;DHT22;37929;53.218;6.548;2023-04-06T02:59:35;4.30;99.90
51902;DHT22;37929;53.218;6.548;2023-04-06T03:02:01;4.40;99.90
51902;DHT22;37929;53.218;6.548;2023-04-06T03:04:26;3.60;99.90
51902;DHT22;37929;53.218;6.548;2023-04-06T03:06:54;3.60;99.90
51902;DHT22;37929;53.218;6.548;2023-04-06T03:09:20;3.60;99.90
51902;DHT22;37929;53.218;6.548;2023-04-06T03:11:46;3.90;99.90
51902;DHT22;37929;53.218;6.548;2023-04-06T03:14:12;4.40;99.90
51902;DHT22;37929;53.218;6.548;2023-04-06T03:16:38;3.50;99.90
51902;DHT22;37929;53.218;6.548;2023-04-06T03:19:04;4.10;99.90
51902;DHT22;37929;53.218;6.548;2023-04-06T03:21:29;3.50;99.90
51902;DHT22;37929;53.218;6.548;2023-04-06T03:23:55;3.40;99.90
51902;DHT22;37929;53.218;6.548;2023-04-06T03:26:21;3.40;99.90
51902;DHT22;37929;53.218;6.548;2023-04-06T03:28:47;3.40;99.90
51902;DHT22;37929;53.218;6.548;2023-04-06T03:31:13;3.30;99.90
51902;DHT22;37929;53.218;6.548;2023-04-06T03:33:39;3.50;99.90
51902;DHT22;37929;53.218;6.548;2023-04-06T03:36:05;3.30;99.90
51902;DHT22;37929;53.218;6.548;2023-04-06T03:38:32;3.30;99.90
51902;DHT22;37929;53.218;6.548;2023-04-06T03:40:58;3.30;99.90
51902;DHT22;37929;53.218;6.548;2023-04-06T03:43:23;3.30;99.90
51902;DHT22;37929;53.218;6.548;2023-04-06T03:45:49;3.50;99.90
51902;DHT22;37929;53.218;6.548;2023-04-06T03:48:15;3.20;99.90
51902;DHT22;37929;53.218;6.548;2023-04-06T03:50:40;3.80;99.90
51902;DHT22;37929;53.218;6.548;2023-04-06T03:53:06;3.20;99.90
51902;DHT22;37929;53.218;6.548;2023-04-06T03:55:32;3.90;99.90
51902;DHT22;37929;53.218;6.548;2023-04-06T03:57:58;3.20;99.90
51902;DHT22;37929;53.218;6.548;2023-04-06T04:00:24;3.20;99.90
51902;DHT22;37929;53.218;6.548;2023-04-06T04:02:49;3.50;99.90
51902;DHT22;37929;53.218;6.548;2023-04-06T04:05:16;3.20;99.90
51902;DHT22;37929;53.218;6.548;2023-04-06T04:07:41;3.20;99.90
51902;DHT22;37929;53.218;6.548;2023-04-06T04:10:07;3.20;99.90
51902;DHT22;37929;53.218;6.548;2023-04-06T04:12:33;3.10;99.90
51902;DHT22;37929;53.218;6.548;2023-04-06T04:14:59;3.20;99.90
51902;DHT22;37929;53.218;6.548;2023-04-06T04:17:25;3.10;99.90
51902;DHT22;37929;53.218;6.548;2023-04-06T04:19:51;3.10;99.90
51902;DHT22;37929;53.218;6.548;2023-04-06T04:22:16;3.50;99.90
51902;DHT22;37929;53.218;6.548;2023-04-06T04:24:42;3.10;99.90
51902;DHT22;37929;53.218;6.548;2023-04-06T04:27:11;3.00;99.90
51902;DHT22;37929;53.218;6.548;2023-04-06T04:29:36;3.00;99.90
51902;DHT22;37929;53.218;6.548;2023-04-06T04:32:03;3.00;99.90
51902;DHT22;37929;53.218;6.548;2023-04-06T04:34:28;3.00;99.90
51902;DHT22;37929;53.218;6.548;2023-04-06T04:36:54;3.00;99.90
51902;DHT22;37929;53.218;6.548;2023-04-06T04:39:21;2.90;99.90
51902;DHT22;37929;53.218;6.548;2023-04-06T04:41:46;3.30;99.90
51902;DHT22;37929;53.218;6.548;2023-04-06T04:44:12;2.90;99.90
51902;DHT22;37929;53.218;6.548;2023-04-06T04:46:38;2.80;99.90
51902;DHT22;37929;53.218;6.548;2023-04-06T04:49:07;2.80;99.90
51902;DHT22;37929;53.218;6.548;2023-04-06T04:51:33;2.80;99.90
51902;DHT22;37929;53.218;6.548;2023-04-06T04:53:59;2.80;99.90
51902;DHT22;37929;53.218;6.548;2023-04-06T04:56:25;3.10;99.90
51902;DHT22;37929;53.218;6.548;2023-04-06T04:58:51;3.50;99.90
51902;DHT22;37929;53.218;6.548;2023-04-06T05:01:16;2.80;99.90
51902;DHT22;37929;53.218;6.548;2023-04-06T05:03:42;2.90;99.90
51902;DHT22;37929;53.218;6.548;2023-04-06T05:06:08;3.90;99.90
51902;DHT22;37929;53.218;6.548;2023-04-06T05:08:33;3.00;99.90
51902;DHT22;37929;53.218;6.548;2023-04-06T05:10:59;2.70;99.90
51902;DHT22;37929;53.218;6.548;2023-04-06T05:13:25;2.60;99.90
51902;DHT22;37929;53.218;6.548;2023-04-06T05:15:51;2.60;99.90
51902;DHT22;37929;53.218;6.548;2023-04-06T05:18:16;3.50;99.90
51902;DHT22;37929;53.218;6.548;2023-04-06T05:20:42;3.40;99.90
51902;DHT22;37929;53.218;6.548;2023-04-06T05:23:08;2.50;99.90
51902;DHT22;37929;53.218;6.548;2023-04-06T05:25:34;2.60;99.90
51902;DHT22;37929;53.218;6.548;2023-04-06T05:27:59;2.60;99.90
51902;DHT22;37929;53.218;6.548;2023-04-06T05:30:25;3.10;99.90
51902;DHT22;37929;53.218;6.548;2023-04-06T05:32:51;2.80;99.90
51902;DHT22;37929;53.218;6.548;2023-04-06T05:35:17;2.60;99.90
51902;DHT22;37929;53.218;6.548;2023-04-06T05:37:46;2.60;99.90
51902;DHT22;37929;53.218;6.548;2023-04-06T05:40:11;2.60;99.90
51902;DHT22;37929;53.218;6.548;2023-04-06T05:42:39;3.50;99.90
51902;DHT22;37929;53.218;6.548;2023-04-06T05:45:06;3.00;99.90
51902;DHT22;37929;53.218;6.548;2023-04-06T05:47:32;2.60;99.90
51902;DHT22;37929;53.218;6.548;2023-04-06T05:49:58;2.80;99.90
51902;DHT22;37929;53.218;6.548;2023-04-06T05:52:24;2.60;99.90
51902;DHT22;37929;53.218;6.548;2023-04-06T05:54:49;2.60;99.90
51902;DHT22;37929;53.218;6.548;2023-04-06T05:57:16;2.70;99.90
51902;DHT22;37929;53.218;6.548;2023-04-06T05:59:44;2.70;99.90
51902;DHT22;37929;53.218;6.548;2023-04-06T06:02:10;2.70;99.90
51902;DHT22;37929;53.218;6.548;2023-04-06T06:04:36;2.70;99.90
51902;DHT22;37929;53.218;6.548;2023-04-06T06:07:02;2.80;99.90
51902;DHT22;37929;53.218;6.548;2023-04-06T06:09:28;2.80;99.90
51902;DHT22;37929;53.218;6.548;2023-04-06T06:11:53;2.90;99.90
51902;DHT22;37929;53.218;6.548;2023-04-06T06:14:19;2.80;99.90
51902;DHT22;37929;53.218;6.548;2023-04-06T06:16:45;2.90;99.90
51902;DHT22;37929;53.218;6.548;2023-04-06T06:19:11;3.70;99.90
51902;DHT22;37929;53.218;6.548;2023-04-06T06:21:37;3.00;99.90
51902;DHT22;37929;53.218;6.548;2023-04-06T06:24:03;3.00;99.90
51902;DHT22;37929;53.218;6.548;2023-04-06T06:26:29;3.10;99.90
51902;DHT22;37929;53.218;6.548;2023-04-06T06:28:57;3.20;99.90
51902;DHT22;37929;53.218;6.548;2023-04-06T06:31:23;3.20;99.90
51902;DHT22;37929;53.218;6.548;2023-04-06T06:33:50;3.20;99.90
51902;DHT22;37929;53.218;6.548;2023-04-06T06:36:19;3.20;99.90
51902;DHT22;37929;53.218;6.548;2023-04-06T06:38:45;4.10;99.90
51902;DHT22;37929;53.218;6.548;2023-04-06T06:41:11;4.00;99.90
51902;DHT22;37929;53.218;6.548;2023-04-06T06:43:37;3.30;99.90
51902;DHT22;37929;53.218;6.548;2023-04-06T06:46:03;3.40;99.90
51902;DHT22;37929;53.218;6.548;2023-04-06T06:48:29;3.40;99.90
51902;DHT22;37929;53.218;6.548;2023-04-06T06:50:54;3.50;99.90
51902;DHT22;37929;53.218;6.548;2023-04-06T06:53:21;3.60;99.90
51902;DHT22;37929;53.218;6.548;2023-04-06T06:55:46;3.60;99.90
51902;DHT22;37929;53.218;6.548;2023-04-06T06:58:20;3.70;99.90
51902;DHT22;37929;53.218;6.548;2023-04-06T07:00:46;3.40;99.90
51902;DHT22;37929;53.218;6.548;2023-04-06T07:03:12;3.80;99.90
51902;DHT22;37929;53.218;6.548;2023-04-06T07:05:38;3.80;99.90
51902;DHT22;37929;53.218;6.548;2023-04-06T07:08:04;3.90;99.90
51902;DHT22;37929;53.218;6.548;2023-04-06T07:10:30;3.90;99.90
51902;DHT22;37929;53.218;6.548;2023-04-06T07:12:56;3.90;99.90
51902;DHT22;37929;53.218;6.548;2023-04-06T07:15:22;4.00;99.90
51902;DHT22;37929;53.218;6.548;2023-04-06T07:17:48;4.40;99.90
51902;DHT22;37929;53.218;6.548;2023-04-06T07:20:14;4.10;99.90
51902;DHT22;37929;53.218;6.548;2023-04-06T07:22:43;4.20;99.90
51902;DHT22;37929;53.218;6.548;2023-04-06T07:25:10;4.30;99.90
51902;DHT22;37929;53.218;6.548;2023-04-06T07:27:36;4.30;99.90
51902;DHT22;37929;53.218;6.548;2023-04-06T07:30:02;5.20;99.90
51902;DHT22;37929;53.218;6.548;2023-04-06T07:32:28;4.50;99.90
51902;DHT22;37929;53.218;6.548;2023-04-06T07:34:55;5.30;99.90
51902;DHT22;37929;53.218;6.548;2023-04-06T07:37:21;4.70;99.90
51902;DHT22;37929;53.218;6.548;2023-04-06T07:39:47;4.90;99.90
51902;DHT22;37929;53.218;6.548;2023-04-06T07:42:13;5.00;99.90
51902;DHT22;37929;53.218;6.548;2023-04-06T07:44:41;5.20;99.90
51902;DHT22;37929;53.218;6.548;2023-04-06T07:47:07;5.80;99.90
51902;DHT22;37929;53.218;6.548;2023-04-06T07:49:33;6.30;99.90
51902;DHT22;37929;53.218;6.548;2023-04-06T07:51:59;7.10;99.90
51902;DHT22;37929;53.218;6.548;2023-04-06T07:54:26;7.90;99.90
51902;DHT22;37929;53.218;6.548;2023-04-06T07:56:51;8.50;99.90
51902;DHT22;37929;53.218;6.548;2023-04-06T07:59:17;9.00;99.90
51902;DHT22;37929;53.218;6.548;2023-04-06T08:01:43;9.20;99.90
51902;DHT22;37929;53.218;6.548;2023-04-06T08:04:08;9.70;99.90
51902;DHT22;37929;53.218;6.548;2023-04-06T08:06:34;9.60;99.90
51902;DHT22;37929;53.218;6.548;2023-04-06T08:09:02;10.00;99.90
51902;DHT22;37929;53.218;6.548;2023-04-06T08:11:28;10.10;99.90
51902;DHT22;37929;53.218;6.548;2023-04-06T08:13:54;9.70;99.90
51902;DHT22;37929;53.218;6.548;2023-04-06T08:16:24;9.50;99.90
51902;DHT22;37929;53.218;6.548;2023-04-06T08:18:50;9.40;99.90
51902;DHT22;37929;53.218;6.548;2023-04-06T08:21:16;9.40;99.90
51902;DHT22;37929;53.218;6.548;2023-04-06T08:23:42;9.60;99.90
51902;DHT22;37929;53.218;6.548;2023-04-06T08:26:07;9.70;99.90
51902;DHT22;37929;53.218;6.548;2023-04-06T08:28:33;9.90;99.90
51902;DHT22;37929;53.218;6.548;2023-04-06T08:31:06;9.80;99.90
51902;DHT22;37929;53.218;6.548;2023-04-06T08:33:35;9.70;99.90
51902;DHT22;37929;53.218;6.548;2023-04-06T08:36:13;9.90;99.90
51902;DHT22;37929;53.218;6.548;2023-04-06T08:38:39;10.10;99.90
51902;DHT22;37929;53.218;6.548;2023-04-06T08:41:13;10.40;99.90
51902;DHT22;37929;53.218;6.548;2023-04-06T08:44:01;10.80;99.90
51902;DHT22;37929;53.218;6.548;2023-04-06T08:46:29;10.90;99.90
51902;DHT22;37929;53.218;6.548;2023-04-06T08:48:57;11.10;99.90
51902;DHT22;37929;53.218;6.548;2023-04-06T08:51:24;11.30;99.70
51902;DHT22;37929;53.218;6.548;2023-04-06T08:53:55;11.40;99.20
51902;DHT22;37929;53.218;6.548;2023-04-06T08:56:22;11.50;98.60
51902;DHT22;37929;53.218;6.548;2023-04-06T08:58:50;11.50;97.50
51902;DHT22;37929;53.218;6.548;2023-04-06T09:01:18;11.80;97.30
51902;DHT22;37929;53.218;6.548;2023-04-06T09:03:46;11.80;97.20
51902;DHT22;37929;53.218;6.548;2023-04-06T09:06:13;11.70;97.00
51902;DHT22;37929;53.218;6.548;2023-04-06T09:08:40;11.60;96.70
51902;DHT22;37929;53.218;6.548;2023-04-06T09:11:06;11.60;96.90
51902;DHT22;37929;53.218;6.548;2023-04-06T09:13:45;11.70;95.20
51902;DHT22;37929;53.218;6.548;2023-04-06T09:16:11;11.80;94.80
51902;DHT22;37929;53.218;6.548;2023-04-06T09:18:37;11.60;95.40
51902;DHT22;37929;53.218;6.548;2023-04-06T09:21:05;11.50;95.50
51902;DHT22;37929;53.218;6.548;2023-04-06T09:23:31;11.50;95.50
51902;DHT22;37929;53.218;6.548;2023-04-06T09:26:14;11.60;95.40
51902;DHT22;37929;53.218;6.548;2023-04-06T09:28:57;11.70;94.00
51902;DHT22;37929;53.218;6.548;2023-04-06T09:31:27;11.70;94.00
51902;DHT22;37929;53.218;6.548;2023-04-06T09:33:54;11.50;94.10
51902;DHT22;37929;53.218;6.548;2023-04-06T09:36:29;11.40;94.30
51902;DHT22;37929;53.218;6.548;2023-04-06T09:38:57;11.20;94.20
51902;DHT22;37929;53.218;6.548;2023-04-06T09:41:28;11.00;94.20
51902;DHT22;37929;53.218;6.548;2023-04-06T09:44:15;11.00;94.50
51902;DHT22;37929;53.218;6.548;2023-04-06T09:46:44;10.80;93.90
51902;DHT22;37929;53.218;6.548;2023-04-06T09:49:11;10.70;94.60
51902;DHT22;37929;53.218;6.548;2023-04-06T09:51:53;10.80;95.10
51902;DHT22;37929;53.218;6.548;2023-04-06T09:54:21;10.70;94.40
51902;DHT22;37929;53.218;6.548;2023-04-06T09:56:51;10.80;95.00
51902;DHT22;37929;53.218;6.548;2023-04-06T10:02:09;10.80;94.30
51902;DHT22;37929;53.218;6.548;2023-04-06T10:04:43;10.70;94.30
51902;DHT22;37929;53.218;6.548;2023-04-06T10:07:10;10.80;94.70
51902;DHT22;37929;53.218;6.548;2023-04-06T10:09:37;10.80;94.50
51902;DHT22;37929;53.218;6.548;2023-04-06T10:12:05;10.80;94.50
51902;DHT22;37929;53.218;6.548;2023-04-06T10:14:33;10.90;94.50
51902;DHT22;37929;53.218;6.548;2023-04-06T10:17:03;11.00;94.80
51902;DHT22;37929;53.218;6.548;2023-04-06T10:22:05;11.20;94.90
51902;DHT22;37929;53.218;6.548;2023-04-06T10:24:31;11.40;94.60
51902;DHT22;37929;53.218;6.548;2023-04-06T10:27:07;11.50;94.30
51902;DHT22;37929;53.218;6.548;2023-04-06T10:29:46;11.50;93.40
51902;DHT22;37929;53.218;6.548;2023-04-06T10:32:13;11.40;93.80
51902;DHT22;37929;53.218;6.548;2023-04-06T10:34:39;11.40;93.70
51902;DHT22;37929;53.218;6.548;2023-04-06T10:37:14;11.40;94.00
51902;DHT22;37929;53.218;6.548;2023-04-06T10:39:51;11.60;93.80
51902;DHT22;37929;53.218;6.548;2023-04-06T10:42:24;11.70;93.70
51902;DHT22;37929;53.218;6.548;2023-04-06T10:44:51;11.80;93.30
51902;DHT22;37929;53.218;6.548;2023-04-06T10:47:17;11.80;91.30
51902;DHT22;37929;53.218;6.548;2023-04-06T10:49:43;11.80;91.20
51902;DHT22;37929;53.218;6.548;2023-04-06T10:52:09;11.90;91.30
51902;DHT22;37929;53.218;6.548;2023-04-06T10:54:41;12.00;91.40
51902;DHT22;37929;53.218;6.548;2023-04-06T10:57:09;11.90;90.70
51902;DHT22;37929;53.218;6.548;2023-04-06T10:59:35;11.80;90.10
51902;DHT22;37929;53.218;6.548;2023-04-06T11:02:00;11.70;90.30
51902;DHT22;37929;53.218;6.548;2023-04-06T11:04:26;11.80;90.30
51902;DHT22;37929;53.218;6.548;2023-04-06T11:06:52;11.80;89.30
51902;DHT22;37929;53.218;6.548;2023-04-06T11:09:28;11.70;89.80
51902;DHT22;37929;53.218;6.548;2023-04-06T11:11:54;11.70;89.10
51902;DHT22;37929;53.218;6.548;2023-04-06T11:14:21;11.80;89.50
51902;DHT22;37929;53.218;6.548;2023-04-06T11:16:48;12.00;88.40
51902;DHT22;37929;53.218;6.548;2023-04-06T11:19:15;11.80;88.30
51902;DHT22;37929;53.218;6.548;2023-04-06T11:21:43;11.90;87.80
51902;DHT22;37929;53.218;6.548;2023-04-06T11:24:19;12.00;87.10
51902;DHT22;37929;53.218;6.548;2023-04-06T11:26:47;12.10;87.50
51902;DHT22;37929;53.218;6.548;2023-04-06T11:29:16;12.30;87.60
51902;DHT22;37929;53.218;6.548;2023-04-06T11:31:46;12.40;87.50
51902;DHT22;37929;53.218;6.548;2023-04-06T11:34:22;12.30;86.50
51902;DHT22;37929;53.218;6.548;2023-04-06T11:36:54;12.40;85.80
51902;DHT22;37929;53.218;6.548;2023-04-06T11:39:22;12.50;85.30
51902;DHT22;37929;53.218;6.548;2023-04-06T11:42:01;12.50;86.00
51902;DHT22;37929;53.218;6.548;2023-04-06T11:44:34;12.60;85.50
51902;DHT22;37929;53.218;6.548;2023-04-06T11:47:01;12.60;84.30
51902;DHT22;37929;53.218;6.548;2023-04-06T11:49:29;12.60;83.10
51902;DHT22;37929;53.218;6.548;2023-04-06T11:51:55;12.60;83.20
51902;DHT22;37929;53.218;6.548;2023-04-06T11:54:36;12.60;84.20
51902;DHT22;37929;53.218;6.548;2023-04-06T11:57:05;12.60;81.80
51902;DHT22;37929;53.218;6.548;2023-04-06T11:59:32;12.50;82.50
51902;DHT22;37929;53.218;6.548;2023-04-06T12:01:58;12.40;83.20
51902;DHT22;37929;53.218;6.548;2023-04-06T12:04:24;12.40;83.50
51902;DHT22;37929;53.218;6.548;2023-04-06T12:06:50;12.40;84.00
51902;DHT22;37929;53.218;6.548;2023-04-06T12:09:16;12.50;84.10
51902;DHT22;37929;53.218;6.548;2023-04-06T12:11:45;12.50;83.80
51902;DHT22;37929;53.218;6.548;2023-04-06T12:14:11;12.40;83.90
51902;DHT22;37929;53.218;6.548;2023-04-06T12:16:38;12.30;83.30
51902;DHT22;37929;53.218;6.548;2023-04-06T12:19:05;12.30;83.30
51902;DHT22;37929;53.218;6.548;2023-04-06T12:21:31;12.30;83.50
51902;DHT22;37929;53.218;6.548;2023-04-06T12:23:58;12.30;82.80
51902;DHT22;37929;53.218;6.548;2023-04-06T12:26:24;12.30;83.20
51902;DHT22;37929;53.218;6.548;2023-04-06T12:28:51;12.30;83.60
51902;DHT22;37929;53.218;6.548;2023-04-06T12:31:17;12.20;83.50
51902;DHT22;37929;53.218;6.548;2023-04-06T12:33:46;12.30;83.80
51902;DHT22;37929;53.218;6.548;2023-04-06T12:36:16;12.30;82.70
51902;DHT22;37929;53.218;6.548;2023-04-06T12:38:46;12.30;82.00
51902;DHT22;37929;53.218;6.548;2023-04-06T12:41:13;12.30;81.80
51902;DHT22;37929;53.218;6.548;2023-04-06T12:43:43;12.30;81.30
51902;DHT22;37929;53.218;6.548;2023-04-06T12:46:09;12.20;79.90
51902;DHT22;37929;53.218;6.548;2023-04-06T12:48:36;12.20;81.10
51902;DHT22;37929;53.218;6.548;2023-04-06T12:51:03;12.20;81.70
51902;DHT22;37929;53.218;6.548;2023-04-06T12:53:30;12.30;82.30
51902;DHT22;37929;53.218;6.548;2023-04-06T12:55:56;12.30;81.50
51902;DHT22;37929;53.218;6.548;2023-04-06T12:58:24;12.30;82.60
51902;DHT22;37929;53.218;6.548;2023-04-06T13:00:52;12.30;81.60
51902;DHT22;37929;53.218;6.548;2023-04-06T13:03:18;12.30;82.10
51902;DHT22;37929;53.218;6.548;2023-04-06T13:05:54;12.50;82.20
51902;DHT22;37929;53.218;6.548;2023-04-06T13:08:20;12.40;81.80
51902;DHT22;37929;53.218;6.548;2023-04-06T13:10:50;12.40;81.30
51902;DHT22;37929;53.218;6.548;2023-04-06T13:13:26;12.40;81.10
51902;DHT22;37929;53.218;6.548;2023-04-06T13:15:59;12.40;81.50
51902;DHT22;37929;53.218;6.548;2023-04-06T13:18:25;12.40;81.60
51902;DHT22;37929;53.218;6.548;2023-04-06T13:20:50;12.30;81.50
51902;DHT22;37929;53.218;6.548;2023-04-06T13:23:16;12.40;81.70
51902;DHT22;37929;53.218;6.548;2023-04-06T13:25:42;12.40;81.50
51902;DHT22;37929;53.218;6.548;2023-04-06T13:28:08;12.60;81.80
51902;DHT22;37929;53.218;6.548;2023-04-06T13:30:35;12.30;81.70
51902;DHT22;37929;53.218;6.548;2023-04-06T13:33:02;12.30;81.30
51902;DHT22;37929;53.218;6.548;2023-04-06T13:35:28;12.30;82.10
51902;DHT22;37929;53.218;6.548;2023-04-06T13:38:00;12.30;81.50
51902;DHT22;37929;53.218;6.548;2023-04-06T13:40:27;12.30;81.80
51902;DHT22;37929;53.218;6.548;2023-04-06T13:42:53;12.40;82.60
51902;DHT22;37929;53.218;6.548;2023-04-06T13:45:19;12.30;81.50
51902;DHT22;37929;53.218;6.548;2023-04-06T13:47:44;12.30;81.80
51902;DHT22;37929;53.218;6.548;2023-04-06T13:50:11;12.40;81.80
51902;DHT22;37929;53.218;6.548;2023-04-06T13:52:36;12.40;82.20
51902;DHT22;37929;53.218;6.548;2023-04-06T13:55:02;12.40;82.30
51902;DHT22;37929;53.218;6.548;2023-04-06T13:57:28;12.40;82.40
51902;DHT22;37929;53.218;6.548;2023-04-06T13:59:55;12.40;82.50
51902;DHT22;37929;53.218;6.548;2023-04-06T14:02:21;12.30;82.60
51902;DHT22;37929;53.218;6.548;2023-04-06T14:04:52;12.30;83.40
51902;DHT22;37929;53.218;6.548;2023-04-06T14:07:20;12.30;83.50
51902;DHT22;37929;53.218;6.548;2023-04-06T14:09:46;12.30;84.20
51902;DHT22;37929;53.218;6.548;2023-04-06T14:12:12;12.30;85.30
51902;DHT22;37929;53.218;6.548;2023-04-06T14:14:38;12.30;86.20
51902;DHT22;37929;53.218;6.548;2023-04-06T14:17:03;12.20;86.90
51902;DHT22;37929;53.218;6.548;2023-04-06T14:19:29;12.20;87.40
51902;DHT22;37929;53.218;6.548;2023-04-06T14:21:58;12.10;87.90
51902;DHT22;37929;53.218;6.548;2023-04-06T14:24:24;12.10;88.50
51902;DHT22;37929;53.218;6.548;2023-04-06T14:26:50;12.10;88.90
51902;DHT22;37929;53.218;6.548;2023-04-06T14:29:16;12.10;89.30
51902;DHT22;37929;53.218;6.548;2023-04-06T14:31:42;12.20;89.60
51902;DHT22;37929;53.218;6.548;2023-04-06T14:34:07;12.30;89.60
51902;DHT22;37929;53.218;6.548;2023-04-06T14:36:33;12.20;89.10
51902;DHT22;37929;53.218;6.548;2023-04-06T14:39:04;12.20;89.40
51902;DHT22;37929;53.218;6.548;2023-04-06T14:41:32;12.30;90.30
51902;DHT22;37929;53.218;6.548;2023-04-06T14:43:58;12.10;90.40
51902;DHT22;37929;53.218;6.548;2023-04-06T14:46:23;12.00;90.50
51902;DHT22;37929;53.218;6.548;2023-04-06T14:48:50;11.90;90.90
51902;DHT22;37929;53.218;6.548;2023-04-06T14:51:16;11.90;91.00
51902;DHT22;37929;53.218;6.548;2023-04-06T14:53:42;11.70;91.30
51902;DHT22;37929;53.218;6.548;2023-04-06T14:56:08;11.70;91.50
51902;DHT22;37929;53.218;6.548;2023-04-06T14:58:34;11.60;91.70
51902;DHT22;37929;53.218;6.548;2023-04-06T15:01:00;11.50;92.30
51902;DHT22;37929;53.218;6.548;2023-04-06T15:03:27;11.50;92.50
51902;DHT22;37929;53.218;6.548;2023-04-06T15:05:54;11.30;92.70
51902;DHT22;37929;53.218;6.548;2023-04-06T15:08:23;11.20;92.50
51902;DHT22;37929;53.218;6.548;2023-04-06T15:10:50;11.10;93.10
51902;DHT22;37929;53.218;6.548;2023-04-06T15:13:17;11.00;93.50
51902;DHT22;37929;53.218;6.548;2023-04-06T15:15:43;11.00;94.20
51902;DHT22;37929;53.218;6.548;2023-04-06T15:18:10;11.00;94.30
51902;DHT22;37929;53.218;6.548;2023-04-06T15:20:37;11.00;94.70
51902;DHT22;37929;53.218;6.548;2023-04-06T15:23:03;10.90;94.50
51902;DHT22;37929;53.218;6.548;2023-04-06T15:25:30;10.90;95.30
51902;DHT22;37929;53.218;6.548;2023-04-06T15:27:56;10.80;95.60
51902;DHT22;37929;53.218;6.548;2023-04-06T15:30:22;10.80;96.20
51902;DHT22;37929;53.218;6.548;2023-04-06T15:32:59;10.80;96.60
51902;DHT22;37929;53.218;6.548;2023-04-06T15:35:29;10.80;96.60
51902;DHT22;37929;53.218;6.548;2023-04-06T15:37:58;10.80;96.50
51902;DHT22;37929;53.218;6.548;2023-04-06T15:40:24;10.80;96.40
51902;DHT22;37929;53.218;6.548;2023-04-06T15:42:50;10.80;96.30
51902;DHT22;37929;53.218;6.548;2023-04-06T15:45:16;10.80;96.40